sensor_id;sensor_type;location;lat;lon;timestamp;pressure;altitude;pressure_sealevel;temperature;humidity
28079;BME280;15388;42.238;24.684;2022-11-15T00:01:59;100214.53;;;6.66;100.00
28079;BME280;15388;42.238;24.684;2022-11-15T00:04:24;100215.19;;;6.55;100.00
28079;BME280;15388;42.238;24.684;2022-11-15T00:06:49;100206.03;;;6.46;100.00
28079;BME280;15388;42.238;24.684;2022-11-15T00:09:15;100202.22;;;6.35;100.00
28079;BME280;15388;42.238;24.684;2022-11-15T00:11:40;100201.88;;;6.42;100.00
28079;BME280;15388;42.238;24.684;2022-11-15T00:14:05;100200.66;;;6.47;100.00
28079;BME280;15388;42.238;24.684;2022-11-15T00:16:31;100203.09;;;6.50;100.00
28079;BME280;15388;42.238;24.684;2022-11-15T00:18:56;100204.69;;;6.53;100.00
28079;BME280;15388;42.238;24.684;2022-11-15T00:21:22;100199.41;;;6.53;100.00
28079;BME280;15388;42.238;24.684;2022-11-15T00:23:47;100202.06;;;6.53;100.00
28079;BME280;15388;42.238;24.684;2022-11-15T00:26:14;100201.09;;;6.54;100.00
28079;BME280;15388;42.238;24.684;2022-11-15T00:28:40;100203.75;;;6.54;100.00
28079;BME280;15388;42.238;24.684;2022-11-15T00:31:06;100208.38;;;6.50;100.00
28079;BME280;15388;42.238;24.684;2022-11-15T00:33:32;100200.47;;;6.50;100.00
28079;BME280;15388;42.238;24.684;2022-11-15T00:36:02;100209.34;;;6.49;100.00
28079;BME280;15388;42.238;24.684;2022-11-15T00:38:32;100205.28;;;6.44;100.00
28079;BME280;15388;42.238;24.684;2022-11-15T00:40:58;100198.59;;;6.53;100.00
28079;BME280;15388;42.238;24.684;2022-11-15T00:43:23;100194.69;;;6.44;100.00
28079;BME280;15388;42.238;24.684;2022-11-15T00:45:48;100191.09;;;6.45;100.00
28079;BME280;15388;42.238;24.684;2022-11-15T00:48:14;100193.66;;;6.46;100.00
28079;BME280;15388;42.238;24.684;2022-11-15T00:50:39;100188.94;;;6.52;100.00
28079;BME280;15388;42.238;24.684;2022-11-15T00:53:04;100191.28;;;6.56;100.00
28079;BME280;15388;42.238;24.684;2022-11-15T00:55:30;100188.47;;;6.59;100.00
28079;BME280;15388;42.238;24.684;2022-11-15T00:57:55;100183.19;;;6.59;100.00
28079;BME280;15388;42.238;24.684;2022-11-15T01:00:20;100194.41;;;6.63;100.00
28079;BME280;15388;42.238;24.684;2022-11-15T01:02:46;100192.91;;;6.59;100.00
28079;BME280;15388;42.238;24.684;2022-11-15T01:05:11;100191.75;;;6.48;100.00
28079;BME280;15388;42.238;24.684;2022-11-15T01:07:37;100188.91;;;6.37;100.00
28079;BME280;15388;42.238;24.684;2022-11-15T01:10:02;100185.72;;;6.32;100.00
28079;BME280;15388;42.238;24.684;2022-11-15T01:12:28;100188.81;;;6.24;100.00
28079;BME280;15388;42.238;24.684;2022-11-15T01:14:54;100186.09;;;6.26;100.00
28079;BME280;15388;42.238;24.684;2022-11-15T01:17:19;100173.31;;;6.18;100.00
28079;BME280;15388;42.238;24.684;2022-11-15T01:19:44;100182.94;;;6.04;100.00
28079;BME280;15388;42.238;24.684;2022-11-15T01:22:10;100180.22;;;6.06;100.00
28079;BME280;15388;42.238;24.684;2022-11-15T01:24:35;100183.69;;;6.06;100.00
28079;BME280;15388;42.238;24.684;2022-11-15T01:27:00;100180.69;;;6.13;100.00
28079;BME280;15388;42.238;24.684;2022-11-15T01:29:26;100172.19;;;6.07;100.00
28079;BME280;15388;42.238;24.684;2022-11-15T01:31:52;100174.44;;;6.14;100.00
28079;BME280;15388;42.238;24.684;2022-11-15T01:34:18;100170.69;;;6.18;100.00
28079;BME280;15388;42.238;24.684;2022-11-15T01:36:43;100169.34;;;6.10;100.00
28079;BME280;15388;42.238;24.684;2022-11-15T01:39:09;100175.50;;;6.11;100.00
28079;BME280;15388;42.238;24.684;2022-11-15T01:41:34;100175.69;;;6.22;100.00
28079;BME280;15388;42.238;24.684;2022-11-15T01:46:45;100172.75;;;6.13;100.00
28079;BME280;15388;42.238;24.684;2022-11-15T01:49:16;100178.59;;;6.18;100.00
28079;BME280;15388;42.238;24.684;2022-11-15T01:51:42;100168.13;;;6.16;100.00
28079;BME280;15388;42.238;24.684;2022-11-15T01:54:08;100175.41;;;6.13;100.00
28079;BME280;15388;42.238;24.684;2022-11-15T01:56:41;100173.22;;;6.05;100.00
28079;BME280;15388;42.238;24.684;2022-11-15T01:59:09;100170.84;;;6.00;100.00
28079;BME280;15388;42.238;24.684;2022-11-15T02:01:35;100167.84;;;6.06;100.00
28079;BME280;15388;42.238;24.684;2022-11-15T02:04:03;100173.13;;;6.06;100.00
28079;BME280;15388;42.238;24.684;2022-11-15T02:06:30;100171.25;;;6.08;100.00
28079;BME280;15388;42.238;24.684;2022-11-15T02:08:56;100170.13;;;6.13;100.00
28079;BME280;15388;42.238;24.684;2022-11-15T02:11:22;100173.31;;;6.18;100.00
28079;BME280;15388;42.238;24.684;2022-11-15T02:13:47;100173.03;;;6.22;100.00
28079;BME280;15388;42.238;24.684;2022-11-15T02:18:40;100164.84;;;6.27;100.00
28079;BME280;15388;42.238;24.684;2022-11-15T02:23:56;100171.09;;;6.26;100.00
28079;BME280;15388;42.238;24.684;2022-11-15T02:29:11;100162.03;;;6.30;100.00
28079;BME280;15388;42.238;24.684;2022-11-15T02:37:09;100161.28;;;5.97;100.00
28079;BME280;15388;42.238;24.684;2022-11-15T02:42:16;100157.34;;;6.05;100.00
28079;BME280;15388;42.238;24.684;2022-11-15T02:45:03;100162.28;;;6.11;100.00
28079;BME280;15388;42.238;24.684;2022-11-15T02:47:30;100154.63;;;6.21;100.00
28079;BME280;15388;42.238;24.684;2022-11-15T02:49:58;100142.94;;;6.25;100.00
28079;BME280;15388;42.238;24.684;2022-11-15T02:52:25;100154.09;;;6.30;100.00
28079;BME280;15388;42.238;24.684;2022-11-15T02:54:54;100147.66;;;6.34;100.00
28079;BME280;15388;42.238;24.684;2022-11-15T02:57:23;100151.91;;;6.22;100.00
28079;BME280;15388;42.238;24.684;2022-11-15T03:02:50;100148.53;;;6.35;100.00
28079;BME280;15388;42.238;24.684;2022-11-15T03:05:25;100153.22;;;6.44;100.00
28079;BME280;15388;42.238;24.684;2022-11-15T03:08:17;100145.88;;;6.49;100.00
28079;BME280;15388;42.238;24.684;2022-11-15T03:10:43;100152.41;;;6.44;100.00
28079;BME280;15388;42.238;24.684;2022-11-15T03:16:02;100152.00;;;6.50;100.00
28079;BME280;15388;42.238;24.684;2022-11-15T03:18:32;100146.16;;;6.30;100.00
28079;BME280;15388;42.238;24.684;2022-11-15T03:20:59;100156.38;;;6.36;100.00
28079;BME280;15388;42.238;24.684;2022-11-15T03:23:28;100147.38;;;6.39;100.00
28079;BME280;15388;42.238;24.684;2022-11-15T03:25:54;100150.50;;;6.46;100.00
28079;BME280;15388;42.238;24.684;2022-11-15T03:28:22;100149.75;;;6.44;100.00
28079;BME280;15388;42.238;24.684;2022-11-15T03:30:49;100144.94;;;6.36;100.00
28079;BME280;15388;42.238;24.684;2022-11-15T03:33:15;100145.28;;;6.30;100.00
28079;BME280;15388;42.238;24.684;2022-11-15T03:35:42;100143.50;;;6.30;100.00
28079;BME280;15388;42.238;24.684;2022-11-15T03:40:53;100140.19;;;6.27;100.00
28079;BME280;15388;42.238;24.684;2022-11-15T03:46:11;100133.22;;;6.26;100.00
28079;BME280;15388;42.238;24.684;2022-11-15T03:48:40;100122.09;;;6.20;100.00
28079;BME280;15388;42.238;24.684;2022-11-15T03:51:06;100118.03;;;6.15;100.00
28079;BME280;15388;42.238;24.684;2022-11-15T03:53:32;100123.59;;;6.10;100.00
28079;BME280;15388;42.238;24.684;2022-11-15T03:55:57;100119.22;;;6.09;100.00
28079;BME280;15388;42.238;24.684;2022-11-15T03:58:23;100111.22;;;6.10;100.00
28079;BME280;15388;42.238;24.684;2022-11-15T04:00:48;100115.88;;;5.91;100.00
28079;BME280;15388;42.238;24.684;2022-11-15T04:03:14;100109.84;;;5.89;100.00
28079;BME280;15388;42.238;24.684;2022-11-15T04:05:39;100108.03;;;5.74;100.00
28079;BME280;15388;42.238;24.684;2022-11-15T04:08:04;100111.16;;;5.81;100.00
28079;BME280;15388;42.238;24.684;2022-11-15T04:10:30;100112.56;;;5.87;100.00
28079;BME280;15388;42.238;24.684;2022-11-15T04:12:55;100111.94;;;5.98;100.00
28079;BME280;15388;42.238;24.684;2022-11-15T04:15:21;100109.28;;;5.98;100.00
28079;BME280;15388;42.238;24.684;2022-11-15T04:17:50;100105.78;;;5.97;100.00
28079;BME280;15388;42.238;24.684;2022-11-15T04:20:18;100107.59;;;5.97;100.00
28079;BME280;15388;42.238;24.684;2022-11-15T04:23:03;100103.81;;;6.01;100.00
28079;BME280;15388;42.238;24.684;2022-11-15T04:25:47;100103.91;;;5.99;100.00
28079;BME280;15388;42.238;24.684;2022-11-15T04:28:14;100103.81;;;6.01;100.00
28079;BME280;15388;42.238;24.684;2022-11-15T04:30:40;100106.66;;;5.98;100.00
28079;BME280;15388;42.238;24.684;2022-11-15T04:33:05;100109.09;;;6.01;100.00
28079;BME280;15388;42.238;24.684;2022-11-15T04:35:30;100095.41;;;5.94;100.00
28079;BME280;15388;42.238;24.684;2022-11-15T04:37:56;100099.44;;;5.85;100.00
28079;BME280;15388;42.238;24.684;2022-11-15T04:40:22;100104.00;;;5.83;100.00
28079;BME280;15388;42.238;24.684;2022-11-15T04:42:47;100097.66;;;5.71;100.00
28079;BME280;15388;42.238;24.684;2022-11-15T04:45:12;100092.41;;;5.55;100.00
28079;BME280;15388;42.238;24.684;2022-11-15T04:47:38;100095.25;;;5.52;100.00
28079;BME280;15388;42.238;24.684;2022-11-15T04:50:03;100089.63;;;5.73;100.00
28079;BME280;15388;42.238;24.684;2022-11-15T04:52:29;100093.03;;;5.75;100.00
28079;BME280;15388;42.238;24.684;2022-11-15T04:54:54;100084.00;;;5.79;100.00
28079;BME280;15388;42.238;24.684;2022-11-15T04:57:19;100084.81;;;5.80;100.00
28079;BME280;15388;42.238;24.684;2022-11-15T04:59:45;100089.09;;;5.82;100.00
28079;BME280;15388;42.238;24.684;2022-11-15T05:02:10;100084.63;;;5.83;100.00
28079;BME280;15388;42.238;24.684;2022-11-15T05:04:36;100087.94;;;5.72;100.00
28079;BME280;15388;42.238;24.684;2022-11-15T05:07:01;100090.66;;;5.70;100.00
28079;BME280;15388;42.238;24.684;2022-11-15T05:09:27;100088.22;;;5.82;100.00
28079;BME280;15388;42.238;24.684;2022-11-15T05:11:52;100087.47;;;5.94;100.00
28079;BME280;15388;42.238;24.684;2022-11-15T05:14:18;100085.69;;;5.95;100.00
28079;BME280;15388;42.238;24.684;2022-11-15T05:16:43;100087.97;;;6.01;100.00
28079;BME280;15388;42.238;24.684;2022-11-15T05:19:08;100093.09;;;6.19;100.00
28079;BME280;15388;42.238;24.684;2022-11-15T05:21:34;100088.94;;;6.29;100.00
28079;BME280;15388;42.238;24.684;2022-11-15T05:24:00;100089.88;;;6.43;100.00
28079;BME280;15388;42.238;24.684;2022-11-15T05:26:26;100084.00;;;6.52;100.00
28079;BME280;15388;42.238;24.684;2022-11-15T05:28:52;100097.50;;;6.62;100.00
28079;BME280;15388;42.238;24.684;2022-11-15T05:31:18;100082.06;;;6.69;100.00
28079;BME280;15388;42.238;24.684;2022-11-15T05:33:43;100082.44;;;6.77;100.00
28079;BME280;15388;42.238;24.684;2022-11-15T05:36:15;100093.47;;;6.84;100.00
28079;BME280;15388;42.238;24.684;2022-11-15T05:38:42;100101.13;;;6.88;100.00
28079;BME280;15388;42.238;24.684;2022-11-15T05:41:08;100093.19;;;6.88;100.00
28079;BME280;15388;42.238;24.684;2022-11-15T05:43:34;100097.16;;;6.81;100.00
28079;BME280;15388;42.238;24.684;2022-11-15T05:46:01;100101.50;;;6.82;100.00
28079;BME280;15388;42.238;24.684;2022-11-15T05:48:28;100091.25;;;6.91;100.00
28079;BME280;15388;42.238;24.684;2022-11-15T05:50:54;100099.78;;;6.96;100.00
28079;BME280;15388;42.238;24.684;2022-11-15T05:53:20;100101.28;;;7.00;100.00
28079;BME280;15388;42.238;24.684;2022-11-15T05:55:48;100102.75;;;7.04;100.00
28079;BME280;15388;42.238;24.684;2022-11-15T05:58:13;100112.09;;;7.10;100.00
28079;BME280;15388;42.238;24.684;2022-11-15T06:00:39;100104.63;;;7.17;100.00
28079;BME280;15388;42.238;24.684;2022-11-15T06:03:05;100105.91;;;7.24;100.00
28079;BME280;15388;42.238;24.684;2022-11-15T06:05:30;100097.78;;;7.27;100.00
28079;BME280;15388;42.238;24.684;2022-11-15T06:07:58;100106.16;;;7.34;100.00
28079;BME280;15388;42.238;24.684;2022-11-15T06:10:24;100104.88;;;7.39;100.00
28079;BME280;15388;42.238;24.684;2022-11-15T06:12:56;100105.84;;;7.38;100.00
28079;BME280;15388;42.238;24.684;2022-11-15T06:15:21;100106.69;;;7.39;100.00
28079;BME280;15388;42.238;24.684;2022-11-15T06:17:47;100117.94;;;7.43;100.00
28079;BME280;15388;42.238;24.684;2022-11-15T06:20:12;100112.22;;;7.49;100.00
28079;BME280;15388;42.238;24.684;2022-11-15T06:22:37;100110.31;;;7.51;100.00
28079;BME280;15388;42.238;24.684;2022-11-15T06:25:03;100110.31;;;7.51;100.00
28079;BME280;15388;42.238;24.684;2022-11-15T06:27:28;100107.38;;;7.56;100.00
28079;BME280;15388;42.238;24.684;2022-11-15T06:29:53;100103.34;;;7.63;100.00
28079;BME280;15388;42.238;24.684;2022-11-15T06:32:19;100103.47;;;7.74;100.00
28079;BME280;15388;42.238;24.684;2022-11-15T06:34:44;100105.81;;;7.79;100.00
28079;BME280;15388;42.238;24.684;2022-11-15T06:37:09;100106.13;;;7.87;100.00
28079;BME280;15388;42.238;24.684;2022-11-15T06:39:35;100110.16;;;7.93;100.00
28079;BME280;15388;42.238;24.684;2022-11-15T06:42:00;100114.06;;;8.00;100.00
28079;BME280;15388;42.238;24.684;2022-11-15T06:44:25;100114.72;;;8.04;100.00
28079;BME280;15388;42.238;24.684;2022-11-15T06:46:51;100113.34;;;8.11;100.00
28079;BME280;15388;42.238;24.684;2022-11-15T06:49:16;100114.06;;;8.13;100.00
28079;BME280;15388;42.238;24.684;2022-11-15T06:51:41;100118.44;;;8.14;100.00
28079;BME280;15388;42.238;24.684;2022-11-15T06:54:07;100118.00;;;8.21;100.00
28079;BME280;15388;42.238;24.684;2022-11-15T06:56:33;100120.22;;;8.27;100.00
28079;BME280;15388;42.238;24.684;2022-11-15T06:58:58;100117.34;;;8.30;100.00
28079;BME280;15388;42.238;24.684;2022-11-15T07:01:23;100115.88;;;8.39;100.00
28079;BME280;15388;42.238;24.684;2022-11-15T07:03:49;100120.09;;;8.41;100.00
28079;BME280;15388;42.238;24.684;2022-11-15T07:06:14;100112.69;;;8.47;100.00
28079;BME280;15388;42.238;24.684;2022-11-15T07:08:39;100110.13;;;8.58;100.00
28079;BME280;15388;42.238;24.684;2022-11-15T07:11:07;100106.31;;;8.62;100.00
28079;BME280;15388;42.238;24.684;2022-11-15T07:13:33;100096.72;;;8.73;100.00
28079;BME280;15388;42.238;24.684;2022-11-15T07:16:03;100097.00;;;8.81;100.00
28079;BME280;15388;42.238;24.684;2022-11-15T07:18:29;100094.31;;;8.94;100.00
28079;BME280;15388;42.238;24.684;2022-11-15T07:20:54;100091.31;;;8.99;100.00
28079;BME280;15388;42.238;24.684;2022-11-15T07:23:20;100088.72;;;9.10;100.00
28079;BME280;15388;42.238;24.684;2022-11-15T07:25:45;100087.81;;;9.23;100.00
28079;BME280;15388;42.238;24.684;2022-11-15T07:28:10;100088.78;;;9.33;100.00
28079;BME280;15388;42.238;24.684;2022-11-15T07:30:36;100095.84;;;9.46;100.00
28079;BME280;15388;42.238;24.684;2022-11-15T07:33:01;100090.56;;;9.57;100.00
28079;BME280;15388;42.238;24.684;2022-11-15T07:35:27;100087.94;;;9.68;100.00
28079;BME280;15388;42.238;24.684;2022-11-15T07:37:59;100095.44;;;9.75;100.00
28079;BME280;15388;42.238;24.684;2022-11-15T07:40:25;100093.53;;;9.88;100.00
28079;BME280;15388;42.238;24.684;2022-11-15T07:42:51;100089.06;;;10.00;100.00
28079;BME280;15388;42.238;24.684;2022-11-15T07:45:21;100086.19;;;10.15;100.00
28079;BME280;15388;42.238;24.684;2022-11-15T07:47:46;100088.72;;;10.16;100.00
28079;BME280;15388;42.238;24.684;2022-11-15T07:50:12;100089.09;;;10.23;100.00
28079;BME280;15388;42.238;24.684;2022-11-15T07:52:37;100094.78;;;10.30;100.00
28079;BME280;15388;42.238;24.684;2022-11-15T07:55:03;100092.72;;;10.34;100.00
28079;BME280;15388;42.238;24.684;2022-11-15T07:57:29;100093.94;;;10.41;100.00
28079;BME280;15388;42.238;24.684;2022-11-15T07:59:54;100084.84;;;10.43;100.00
28079;BME280;15388;42.238;24.684;2022-11-15T08:02:19;100086.78;;;10.53;100.00
28079;BME280;15388;42.238;24.684;2022-11-15T08:04:45;100095.03;;;10.61;100.00
28079;BME280;15388;42.238;24.684;2022-11-15T08:07:10;100086.41;;;10.69;100.00
28079;BME280;15388;42.238;24.684;2022-11-15T08:09:35;100087.59;;;10.76;100.00
28079;BME280;15388;42.238;24.684;2022-11-15T08:12:01;100084.69;;;10.79;100.00
28079;BME280;15388;42.238;24.684;2022-11-15T08:14:26;100082.78;;;10.70;100.00
28079;BME280;15388;42.238;24.684;2022-11-15T08:16:51;100086.91;;;10.74;100.00
28079;BME280;15388;42.238;24.684;2022-11-15T08:19:17;100087.97;;;10.83;100.00
28079;BME280;15388;42.238;24.684;2022-11-15T08:21:43;100079.94;;;10.94;100.00
28079;BME280;15388;42.238;24.684;2022-11-15T08:24:09;100082.69;;;11.04;100.00
28079;BME280;15388;42.238;24.684;2022-11-15T08:26:34;100080.88;;;11.05;100.00
28079;BME280;15388;42.238;24.684;2022-11-15T08:29:00;100083.75;;;11.13;100.00
28079;BME280;15388;42.238;24.684;2022-11-15T08:31:25;100084.19;;;11.18;100.00
28079;BME280;15388;42.238;24.684;2022-11-15T08:33:50;100075.38;;;11.18;100.00
28079;BME280;15388;42.238;24.684;2022-11-15T08:36:16;100078.16;;;11.16;100.00
28079;BME280;15388;42.238;24.684;2022-11-15T08:38:42;100078.59;;;11.33;100.00
28079;BME280;15388;42.238;24.684;2022-11-15T08:41:10;100075.66;;;11.36;100.00
28079;BME280;15388;42.238;24.684;2022-11-15T08:43:36;100069.00;;;11.30;100.00
28079;BME280;15388;42.238;24.684;2022-11-15T08:46:01;100068.44;;;11.27;100.00
28079;BME280;15388;42.238;24.684;2022-11-15T08:48:27;100066.47;;;11.29;100.00
28079;BME280;15388;42.238;24.684;2022-11-15T08:50:55;100060.13;;;11.41;100.00
28079;BME280;15388;42.238;24.684;2022-11-15T08:53:21;100066.38;;;11.52;100.00
28079;BME280;15388;42.238;24.684;2022-11-15T08:55:46;100059.00;;;11.65;100.00
28079;BME280;15388;42.238;24.684;2022-11-15T08:58:12;100056.81;;;11.70;100.00
28079;BME280;15388;42.238;24.684;2022-11-15T09:00:37;100054.19;;;11.80;100.00
28079;BME280;15388;42.238;24.684;2022-11-15T09:03:06;100050.19;;;11.96;100.00
28079;BME280;15388;42.238;24.684;2022-11-15T09:05:31;100043.63;;;12.00;100.00
28079;BME280;15388;42.238;24.684;2022-11-15T09:07:57;100049.63;;;12.23;100.00
28079;BME280;15388;42.238;24.684;2022-11-15T09:10:22;100031.84;;;12.03;100.00
28079;BME280;15388;42.238;24.684;2022-11-15T09:12:47;100027.13;;;12.16;100.00
28079;BME280;15388;42.238;24.684;2022-11-15T09:15:13;100023.94;;;12.22;100.00
28079;BME280;15388;42.238;24.684;2022-11-15T09:17:39;100017.03;;;12.10;100.00
28079;BME280;15388;42.238;24.684;2022-11-15T09:20:05;100011.69;;;11.89;100.00
28079;BME280;15388;42.238;24.684;2022-11-15T09:22:30;100011.00;;;11.87;100.00
28079;BME280;15388;42.238;24.684;2022-11-15T09:24:55;100002.25;;;12.06;100.00
28079;BME280;15388;42.238;24.684;2022-11-15T09:27:21;100013.13;;;12.24;100.00
28079;BME280;15388;42.238;24.684;2022-11-15T09:29:46;100004.13;;;12.15;100.00
28079;BME280;15388;42.238;24.684;2022-11-15T09:32:11;99998.56;;;11.97;100.00
28079;BME280;15388;42.238;24.684;2022-11-15T09:34:37;99992.91;;;12.21;100.00
28079;BME280;15388;42.238;24.684;2022-11-15T09:37:02;99986.50;;;12.54;100.00
28079;BME280;15388;42.238;24.684;2022-11-15T09:39:27;99978.09;;;12.68;100.00
28079;BME280;15388;42.238;24.684;2022-11-15T09:49:30;99970.50;;;12.73;100.00
28079;BME280;15388;42.238;24.684;2022-11-15T09:51:56;99969.66;;;12.93;100.00
28079;BME280;15388;42.238;24.684;2022-11-15T09:54:55;99961.72;;;13.31;100.00
28079;BME280;15388;42.238;24.684;2022-11-15T09:57:14;99959.34;;;13.28;100.00
28079;BME280;15388;42.238;24.684;2022-11-15T10:04:38;99952.75;;;13.12;100.00
28079;BME280;15388;42.238;24.684;2022-11-15T10:09:38;99932.00;;;12.86;100.00
28079;BME280;15388;42.238;24.684;2022-11-15T10:12:06;99931.78;;;13.27;100.00
28079;BME280;15388;42.238;24.684;2022-11-15T10:14:32;99928.75;;;13.60;100.00
28079;BME280;15388;42.238;24.684;2022-11-15T10:22:27;99922.94;;;14.57;100.00
28079;BME280;15388;42.238;24.684;2022-11-15T10:25:16;99920.03;;;14.87;100.00
28079;BME280;15388;42.238;24.684;2022-11-15T10:27:39;99923.44;;;14.89;90.34
28079;BME280;15388;42.238;24.684;2022-11-15T10:30:11;99920.94;;;15.14;90.09
28079;BME280;15388;42.238;24.684;2022-11-15T10:32:36;99919.09;;;15.49;83.80
28079;BME280;15388;42.238;24.684;2022-11-15T10:35:15;99912.16;;;15.65;83.45
28079;BME280;15388;42.238;24.684;2022-11-15T10:37:41;99916.59;;;15.91;78.72
28079;BME280;15388;42.238;24.684;2022-11-15T10:40:14;99903.94;;;16.01;78.70
28079;BME280;15388;42.238;24.684;2022-11-15T10:42:40;99900.63;;;16.33;76.04
28079;BME280;15388;42.238;24.684;2022-11-15T10:47:50;99890.25;;;16.88;73.67
28079;BME280;15388;42.238;24.684;2022-11-15T10:50:33;99879.00;;;16.51;78.17
28079;BME280;15388;42.238;24.684;2022-11-15T10:52:58;99876.50;;;16.66;79.17
28079;BME280;15388;42.238;24.684;2022-11-15T10:55:27;99868.06;;;16.61;77.19
28079;BME280;15388;42.238;24.684;2022-11-15T10:58:03;99872.59;;;16.52;76.23
28079;BME280;15388;42.238;24.684;2022-11-15T11:00:30;99861.69;;;16.53;78.08
28079;BME280;15388;42.238;24.684;2022-11-15T11:03:01;99864.59;;;15.92;78.35
28079;BME280;15388;42.238;24.684;2022-11-15T11:07:58;99858.59;;;15.90;77.43
28079;BME280;15388;42.238;24.684;2022-11-15T11:10:24;99851.44;;;16.07;76.24
28079;BME280;15388;42.238;24.684;2022-11-15T11:12:49;99849.63;;;15.73;78.19
28079;BME280;15388;42.238;24.684;2022-11-15T11:15:15;99857.94;;;15.18;78.09
28079;BME280;15388;42.238;24.684;2022-11-15T11:20:37;99849.31;;;14.80;83.43
28079;BME280;15388;42.238;24.684;2022-11-15T11:38:19;99812.66;;;14.17;86.69
28079;BME280;15388;42.238;24.684;2022-11-15T11:40:58;99810.81;;;13.99;88.80
28079;BME280;15388;42.238;24.684;2022-11-15T11:46:25;99793.34;;;14.50;87.43
28079;BME280;15388;42.238;24.684;2022-11-15T11:48:59;99796.19;;;14.48;84.99
28079;BME280;15388;42.238;24.684;2022-11-15T11:51:40;99800.44;;;13.96;87.22
28079;BME280;15388;42.238;24.684;2022-11-15T11:56:36;99792.66;;;14.48;85.59
28079;BME280;15388;42.238;24.684;2022-11-15T11:59:07;99789.69;;;14.33;84.20
28079;BME280;15388;42.238;24.684;2022-11-15T12:01:42;99788.41;;;14.00;85.10
28079;BME280;15388;42.238;24.684;2022-11-15T12:04:51;99780.84;;;13.78;87.76
28079;BME280;15388;42.238;24.684;2022-11-15T12:06:58;99776.78;;;13.92;87.48
28079;BME280;15388;42.238;24.684;2022-11-15T12:11:55;99781.06;;;14.21;86.79
28079;BME280;15388;42.238;24.684;2022-11-15T12:14:35;99770.97;;;14.33;86.37
28079;BME280;15388;42.238;24.684;2022-11-15T12:17:03;99767.78;;;14.56;85.08
28079;BME280;15388;42.238;24.684;2022-11-15T12:19:29;99761.38;;;14.75;84.00
28079;BME280;15388;42.238;24.684;2022-11-15T12:24:25;99747.50;;;15.06;82.46
28079;BME280;15388;42.238;24.684;2022-11-15T12:27:00;99742.00;;;15.16;81.39
28079;BME280;15388;42.238;24.684;2022-11-15T12:31:53;99739.88;;;15.28;80.06
28079;BME280;15388;42.238;24.684;2022-11-15T12:36:46;99735.06;;;15.40;78.41
28079;BME280;15388;42.238;24.684;2022-11-15T12:39:12;99731.03;;;15.44;78.07
28079;BME280;15388;42.238;24.684;2022-11-15T12:41:42;99728.84;;;15.48;76.63
28079;BME280;15388;42.238;24.684;2022-11-15T12:44:11;99731.75;;;15.63;77.82
28079;BME280;15388;42.238;24.684;2022-11-15T12:55:08;99716.03;;;16.26;74.83
28079;BME280;15388;42.238;24.684;2022-11-15T13:02:18;99710.19;;;16.79;71.85
28079;BME280;15388;42.238;24.684;2022-11-15T13:04:43;99707.09;;;16.99;70.75
28079;BME280;15388;42.238;24.684;2022-11-15T13:07:09;99708.59;;;17.02;70.30
28079;BME280;15388;42.238;24.684;2022-11-15T13:09:54;99704.69;;;17.13;69.83
28079;BME280;15388;42.238;24.684;2022-11-15T13:14:56;99690.28;;;16.97;69.95
28079;BME280;15388;42.238;24.684;2022-11-15T13:19:47;99688.09;;;17.09;68.67
28079;BME280;15388;42.238;24.684;2022-11-15T13:22:13;99683.72;;;17.00;69.38
28079;BME280;15388;42.238;24.684;2022-11-15T13:24:57;99684.06;;;17.05;69.44
28079;BME280;15388;42.238;24.684;2022-11-15T13:27:23;99681.50;;;17.12;70.05
28079;BME280;15388;42.238;24.684;2022-11-15T13:29:49;99681.16;;;17.15;69.61
28079;BME280;15388;42.238;24.684;2022-11-15T13:32:15;99682.00;;;17.15;69.30
28079;BME280;15388;42.238;24.684;2022-11-15T13:34:44;99680.81;;;17.18;68.79
28079;BME280;15388;42.238;24.684;2022-11-15T13:39:46;99671.72;;;17.19;68.82
28079;BME280;15388;42.238;24.684;2022-11-15T13:42:15;99681.47;;;17.20;69.12
28079;BME280;15388;42.238;24.684;2022-11-15T13:44:40;99679.31;;;17.15;69.42
28079;BME280;15388;42.238;24.684;2022-11-15T13:47:19;99683.84;;;17.15;69.34
28079;BME280;15388;42.238;24.684;2022-11-15T13:49:44;99676.50;;;17.09;69.24
28079;BME280;15388;42.238;24.684;2022-11-15T13:52:12;99674.81;;;17.08;69.59
28079;BME280;15388;42.238;24.684;2022-11-15T13:57:11;99672.50;;;16.96;69.28
28079;BME280;15388;42.238;24.684;2022-11-15T13:59:44;99666.66;;;16.84;69.55
28079;BME280;15388;42.238;24.684;2022-11-15T14:04:55;99662.53;;;16.73;70.47
28079;BME280;15388;42.238;24.684;2022-11-15T14:07:23;99662.88;;;16.70;70.30
28079;BME280;15388;42.238;24.684;2022-11-15T14:09:49;99678.00;;;16.63;70.66
28079;BME280;15388;42.238;24.684;2022-11-15T14:12:31;99662.91;;;16.53;70.48
28079;BME280;15388;42.238;24.684;2022-11-15T14:14:57;99669.00;;;16.39;70.89
28079;BME280;15388;42.238;24.684;2022-11-15T14:19:55;99660.50;;;16.19;72.29
28079;BME280;15388;42.238;24.684;2022-11-15T14:22:21;99651.91;;;16.15;72.37
28079;BME280;15388;42.238;24.684;2022-11-15T14:27:31;99649.91;;;15.92;73.05
28079;BME280;15388;42.238;24.684;2022-11-15T14:29:56;99650.94;;;15.83;73.63
28079;BME280;15388;42.238;24.684;2022-11-15T14:33:11;99654.78;;;15.72;73.98
28079;BME280;15388;42.238;24.684;2022-11-15T14:35:15;99648.59;;;15.54;74.85
28079;BME280;15388;42.238;24.684;2022-11-15T14:37:40;99654.59;;;15.48;75.16
28079;BME280;15388;42.238;24.684;2022-11-15T14:40:06;99653.59;;;15.41;75.38
28079;BME280;15388;42.238;24.684;2022-11-15T14:42:31;99646.19;;;15.26;76.26